createdAt,value
2022-10-13T00:00:15.861Z,7.15
2022-10-13T00:01:15.930Z,7.17
2022-10-13T00:02:16.244Z,7.17
2022-10-13T00:03:15.801Z,7.20
2022-10-13T00:04:15.825Z,7.20
2022-10-13T00:05:15.783Z,7.22
2022-10-13T00:06:15.793Z,7.22
2022-10-13T00:07:15.764Z,7.20
2022-10-13T00:08:15.776Z,7.19
2022-10-13T00:09:15.722Z,7.17
2022-10-13T00:10:15.725Z,7.19
2022-10-13T00:11:15.716Z,7.17
2022-10-13T00:12:16.007Z,7.16
2022-10-13T00:13:15.715Z,7.13
2022-10-13T00:14:15.791Z,7.12
2022-10-13T00:15:15.663Z,7.09
2022-10-13T00:16:15.668Z,7.08
2022-10-13T00:17:15.644Z,7.07
2022-10-13T00:18:15.628Z,7.07
2022-10-13T00:19:15.616Z,7.04
2022-10-13T00:20:15.714Z,7.04
2022-10-13T00:21:15.599Z,7.05
2022-10-13T00:22:15.908Z,7.04
2022-10-13T00:23:15.557Z,7.04
2022-10-13T00:24:15.547Z,7.04
2022-10-13T00:25:15.548Z,7.04
2022-10-13T00:26:15.546Z,7.05
2022-10-13T00:27:15.496Z,7.09
2022-10-13T00:28:15.533Z,7.08
2022-10-13T00:29:15.487Z,7.04
2022-10-13T00:30:15.473Z,7.01
2022-10-13T00:31:15.450Z,6.99
2022-10-13T00:32:15.759Z,6.98
2022-10-13T00:33:15.431Z,6.98
2022-10-13T00:34:15.409Z,6.98
2022-10-13T00:35:15.389Z,6.97
2022-10-13T00:36:15.372Z,6.95
2022-10-13T00:37:15.376Z,6.94
2022-10-13T00:38:15.493Z,6.91
2022-10-13T00:39:15.343Z,6.95
2022-10-13T00:40:15.318Z,6.95
2022-10-13T00:41:15.299Z,6.94
2022-10-13T00:42:15.342Z,6.90
2022-10-13T00:43:15.313Z,6.89
2022-10-13T00:44:15.292Z,6.89
2022-10-13T00:45:15.264Z,6.87
2022-10-13T00:46:15.243Z,6.86
2022-10-13T00:47:15.242Z,6.84
2022-10-13T00:48:15.236Z,6.86
2022-10-13T00:49:15.212Z,6.83
2022-10-13T00:50:15.217Z,6.84
2022-10-13T00:51:15.197Z,6.86
2022-10-13T00:52:15.273Z,6.90
2022-10-13T00:53:15.156Z,6.91
2022-10-13T00:54:15.124Z,6.91
2022-10-13T00:55:15.124Z,6.95
2022-10-13T00:56:15.237Z,6.97
2022-10-13T00:57:15.117Z,6.95
2022-10-13T00:58:15.074Z,6.95
2022-10-13T00:59:15.074Z,6.97
2022-10-13T01:00:15.077Z,6.98
2022-10-13T01:01:15.072Z,6.99
2022-10-13T01:02:15.169Z,7.01
2022-10-13T01:03:15.028Z,7.04
2022-10-13T01:04:14.994Z,7.05
2022-10-13T01:05:14.999Z,7.08
2022-10-13T01:06:14.966Z,7.08
2022-10-13T01:07:14.959Z,7.09
2022-10-13T01:08:15.090Z,7.12
2022-10-13T01:09:14.926Z,7.13
2022-10-13T01:10:14.930Z,7.15
2022-10-13T01:11:14.921Z,7.16
2022-10-13T01:12:14.898Z,7.15
2022-10-13T01:13:14.880Z,7.16
2022-10-13T01:14:14.959Z,7.16
2022-10-13T01:15:14.847Z,7.19
2022-10-13T01:16:14.839Z,7.22
2022-10-13T01:17:14.812Z,7.24
2022-10-13T01:18:14.804Z,7.27
2022-10-13T01:19:14.803Z,7.35
2022-10-13T01:20:14.800Z,7.37
2022-10-13T01:21:14.774Z,7.38
2022-10-13T01:22:14.751Z,7.38
2022-10-13T01:23:14.738Z,7.37
2022-10-13T01:24:14.723Z,7.35
2022-10-13T01:25:14.702Z,7.37
2022-10-13T01:26:14.825Z,7.35
2022-10-13T01:27:14.702Z,7.35
2022-10-13T01:28:14.757Z,7.35
2022-10-13T01:29:14.651Z,7.34
2022-10-13T01:30:14.646Z,7.34
2022-10-13T01:31:14.644Z,7.34
2022-10-13T01:32:14.644Z,7.35
2022-10-13T01:33:14.615Z,7.35
2022-10-13T01:34:14.573Z,7.32
2022-10-13T01:35:14.577Z,7.29
2022-10-13T01:36:14.568Z,7.27
2022-10-13T01:37:14.546Z,7.24
2022-10-13T01:38:14.649Z,7.27
2022-10-13T01:39:14.538Z,7.24
2022-10-13T01:40:14.494Z,7.24
2022-10-13T01:41:14.505Z,7.23
2022-10-13T01:42:14.485Z,7.20
2022-10-13T01:43:14.467Z,7.17
2022-10-13T01:44:14.489Z,7.16
2022-10-13T01:45:14.449Z,7.17
2022-10-13T01:46:14.415Z,7.16
2022-10-13T01:47:14.406Z,7.13
2022-10-13T01:48:14.408Z,7.13
2022-10-13T01:49:14.386Z,7.12
2022-10-13T01:50:14.411Z,7.13
2022-10-13T01:51:14.370Z,7.16
2022-10-13T01:52:14.348Z,7.22
2022-10-13T01:53:14.342Z,7.24
2022-10-13T01:54:14.308Z,7.29
2022-10-13T01:55:14.298Z,7.37
2022-10-13T01:56:14.422Z,7.35
2022-10-13T01:57:14.278Z,7.32
2022-10-13T01:58:14.274Z,7.31
2022-10-13T01:59:14.268Z,7.31
2022-10-13T02:00:14.229Z,7.26
2022-10-13T02:01:14.228Z,7.23
2022-10-13T02:02:14.342Z,7.22
2022-10-13T02:03:14.211Z,7.20
2022-10-13T02:04:14.182Z,7.16
2022-10-13T02:05:14.185Z,7.16
2022-10-13T02:06:14.151Z,7.15
2022-10-13T02:07:14.144Z,7.15
2022-10-13T02:08:14.245Z,7.12
2022-10-13T02:09:14.120Z,7.05
2022-10-13T02:10:14.113Z,7.05
2022-10-13T02:11:14.104Z,7.02
2022-10-13T02:12:14.083Z,6.99
2022-10-13T02:13:14.076Z,6.97
2022-10-13T02:14:14.154Z,6.95
2022-10-13T02:15:14.033Z,6.97
2022-10-13T02:16:14.027Z,6.97
2022-10-13T02:17:14.003Z,6.97
2022-10-13T02:18:14.009Z,6.97
2022-10-13T02:19:13.996Z,6.95
2022-10-13T02:20:13.992Z,6.94
2022-10-13T02:21:13.968Z,6.91
2022-10-13T02:22:13.934Z,6.91
2022-10-13T02:23:13.925Z,6.91
2022-10-13T02:24:13.929Z,6.97
2022-10-13T02:25:13.904Z,7.05
2022-10-13T02:26:13.935Z,7.09
2022-10-13T02:27:13.890Z,7.12
2022-10-13T02:28:13.908Z,7.08
2022-10-13T02:29:13.867Z,7.07
2022-10-13T02:30:13.836Z,7.05
2022-10-13T02:31:13.825Z,7.08
2022-10-13T02:32:13.841Z,7.12
2022-10-13T02:33:13.811Z,7.16
2022-10-13T02:34:13.777Z,7.17
2022-10-13T02:35:13.768Z,7.17
2022-10-13T02:36:13.762Z,7.20
2022-10-13T02:37:13.739Z,7.23
2022-10-13T02:38:13.765Z,7.22
2022-10-13T02:39:13.732Z,7.23
2022-10-13T02:40:13.705Z,7.23
2022-10-13T02:41:13.703Z,7.24
2022-10-13T02:42:13.669Z,7.23
2022-10-13T02:43:13.662Z,7.22
2022-10-13T02:44:13.686Z,7.17
2022-10-13T02:45:13.639Z,7.17
2022-10-13T02:46:13.634Z,7.16
2022-10-13T02:47:13.624Z,7.15
2022-10-13T02:48:13.592Z,7.16
2022-10-13T02:49:13.582Z,7.19
2022-10-13T02:50:13.606Z,7.19
2022-10-13T02:51:13.565Z,7.27
2022-10-13T02:52:13.537Z,7.35
2022-10-13T02:53:13.555Z,7.40
2022-10-13T02:55:35.791Z,7.45
2022-10-13T02:56:35.759Z,7.45
2022-10-13T02:57:35.734Z,7.44
2022-10-13T02:58:35.714Z,7.40
2022-10-13T02:59:35.721Z,7.41
2022-10-13T03:00:35.709Z,7.40
2022-10-13T03:01:35.822Z,7.42
2022-10-13T03:02:35.669Z,7.42
2022-10-13T03:03:35.655Z,7.44
2022-10-13T03:04:35.650Z,7.44
2022-10-13T03:05:35.627Z,7.45
2022-10-13T03:06:35.617Z,7.49
2022-10-13T03:07:35.733Z,7.50
2022-10-13T03:08:35.601Z,7.53
2022-10-13T03:09:35.577Z,7.53
2022-10-13T03:10:35.558Z,7.58
2022-10-13T03:11:35.563Z,7.60
2022-10-13T03:12:35.528Z,7.63
2022-10-13T03:13:35.650Z,7.63
2022-10-13T03:14:35.521Z,7.66
2022-10-13T03:15:35.506Z,7.67
2022-10-13T03:16:35.493Z,7.71
2022-10-13T03:17:35.470Z,7.72
2022-10-13T03:18:35.461Z,7.75
2022-10-13T03:19:35.571Z,7.77
2022-10-13T03:20:35.431Z,7.77
2022-10-13T03:21:35.433Z,7.81
2022-10-13T03:22:35.413Z,7.89
2022-10-13T03:23:35.390Z,7.93
2022-10-13T03:24:35.385Z,7.96
2022-10-13T03:25:35.529Z,7.99
2022-10-13T03:26:35.343Z,8.02
2022-10-13T03:27:35.353Z,8.02
2022-10-13T03:28:35.389Z,8.03
2022-10-13T03:29:35.332Z,8.04
2022-10-13T03:30:35.307Z,8.07
2022-10-13T03:31:35.313Z,8.04
2022-10-13T03:32:35.277Z,8.07
2022-10-13T03:33:35.260Z,8.07
2022-10-13T03:34:35.245Z,8.07
2022-10-13T03:35:35.247Z,8.08
2022-10-13T03:36:35.214Z,8.08
2022-10-13T03:37:35.337Z,8.08
2022-10-13T03:38:35.209Z,8.08
2022-10-13T03:39:35.185Z,8.07
2022-10-13T03:40:35.165Z,8.10
2022-10-13T03:41:35.169Z,8.11
2022-10-13T03:42:35.149Z,8.11
2022-10-13T03:43:35.157Z,8.11
2022-10-13T03:44:35.129Z,8.12
2022-10-13T03:45:35.097Z,8.17
2022-10-13T03:46:35.087Z,8.18
2022-10-13T03:47:35.090Z,8.20
2022-10-13T03:48:35.068Z,8.20
2022-10-13T03:49:35.091Z,8.20
2022-10-13T03:50:35.043Z,8.20
2022-10-13T03:51:35.033Z,8.18
2022-10-13T03:52:35.022Z,8.17
2022-10-13T03:53:34.998Z,8.15
2022-10-13T03:54:34.978Z,8.14
2022-10-13T03:55:35.003Z,8.12
2022-10-13T03:56:34.964Z,8.11
2022-10-13T03:57:34.940Z,8.12
2022-10-13T03:58:34.933Z,8.14
2022-10-13T03:59:36.920Z,8.15
2022-10-13T04:00:34.899Z,8.15
2022-10-13T04:01:34.957Z,8.17
2022-10-13T04:02:34.885Z,8.20
2022-10-13T04:03:34.861Z,8.20
2022-10-13T04:04:34.857Z,8.22
2022-10-13T04:05:34.833Z,8.26
2022-10-13T04:06:34.813Z,8.28
2022-10-13T04:07:34.859Z,8.29
2022-10-13T04:08:34.800Z,8.33
2022-10-13T04:09:34.796Z,8.32
2022-10-13T04:10:34.777Z,8.33
2022-10-13T04:11:34.754Z,8.32
2022-10-13T04:12:34.734Z,8.32
2022-10-13T04:13:34.859Z,8.30
2022-10-13T04:14:34.720Z,8.30
2022-10-13T04:15:34.705Z,8.33
2022-10-13T04:16:34.699Z,8.37
2022-10-13T04:17:34.675Z,8.39
2022-10-13T04:18:34.665Z,8.40
2022-10-13T04:19:34.778Z,8.45
2022-10-13T04:20:34.626Z,8.48
2022-10-13T04:21:34.639Z,8.48
2022-10-13T04:22:34.619Z,8.50
2022-10-13T04:23:34.596Z,8.51
2022-10-13T04:24:34.591Z,8.48
2022-10-13T04:25:34.679Z,8.48
2022-10-13T04:26:34.548Z,8.47
2022-10-13T04:27:34.560Z,8.44
2022-10-13T04:28:34.554Z,8.44
2022-10-13T04:29:34.521Z,8.44
2022-10-13T04:30:34.524Z,8.44
2022-10-13T04:31:34.524Z,8.44
2022-10-13T04:32:34.491Z,8.47
2022-10-13T04:33:34.460Z,8.50
2022-10-13T04:34:34.450Z,8.53
2022-10-13T04:35:34.443Z,8.54
2022-10-13T04:36:34.420Z,8.57
2022-10-13T04:37:34.453Z,8.58
2022-10-13T04:38:34.414Z,8.62
2022-10-13T04:39:34.381Z,8.65
2022-10-13T04:40:34.394Z,8.66
2022-10-13T04:41:34.351Z,8.68
2022-10-13T04:42:34.360Z,8.68
2022-10-13T04:43:34.464Z,8.69
2022-10-13T04:44:34.336Z,8.69
2022-10-13T04:45:34.302Z,8.69
2022-10-13T04:46:34.303Z,8.69
2022-10-13T04:47:36.995Z,8.69
2022-10-13T04:48:38.273Z,8.68
2022-10-13T04:49:34.277Z,8.68
2022-10-13T04:50:34.258Z,8.66
2022-10-13T04:51:34.213Z,8.65
2022-10-13T04:52:34.239Z,8.62
2022-10-13T04:53:34.185Z,8.58
2022-10-13T04:54:34.186Z,8.57
2022-10-13T04:55:34.279Z,8.58
2022-10-13T04:56:34.155Z,8.58
2022-10-13T04:57:34.149Z,8.63
2022-10-13T04:58:34.152Z,8.63
2022-10-13T04:59:34.107Z,8.65
2022-10-13T05:00:34.156Z,8.65
2022-10-13T05:01:34.203Z,8.66
2022-10-13T05:02:34.089Z,8.66
2022-10-13T05:03:34.057Z,8.66
2022-10-13T05:04:34.061Z,8.69
2022-10-13T05:05:34.028Z,8.72
2022-10-13T05:06:34.018Z,8.78
2022-10-13T05:07:34.042Z,8.83
2022-10-13T05:08:34.087Z,8.86
2022-10-13T05:09:33.982Z,8.90
2022-10-13T05:10:34.869Z,8.96
2022-10-13T05:11:33.951Z,8.99
2022-10-13T05:12:33.953Z,9.04
2022-10-13T05:13:33.956Z,9.09
2022-10-13T05:14:33.910Z,9.12
2022-10-13T05:15:33.905Z,9.13
2022-10-13T05:16:33.903Z,9.15
2022-10-13T05:17:35.472Z,9.15
2022-10-13T05:18:33.862Z,9.16
2022-10-13T05:19:33.988Z,9.13
2022-10-13T05:20:33.832Z,9.13
2022-10-13T05:21:33.827Z,9.13
2022-10-13T05:22:33.816Z,9.13
2022-10-13T05:23:33.787Z,9.10
2022-10-13T05:24:33.795Z,9.09
2022-10-13T05:25:34.084Z,9.09
2022-10-13T05:26:33.756Z,9.10
2022-10-13T05:27:33.751Z,9.13
2022-10-13T05:28:33.760Z,9.13
2022-10-13T05:29:33.727Z,9.16
2022-10-13T05:30:33.716Z,9.16
2022-10-13T05:31:33.705Z,9.20
2022-10-13T05:32:33.687Z,9.20
2022-10-13T05:33:33.656Z,9.23
2022-10-13T05:34:33.646Z,9.24
2022-10-13T05:35:33.640Z,9.27
2022-10-13T05:36:33.620Z,9.30
2022-10-13T05:37:33.641Z,9.32
2022-10-13T05:38:33.610Z,9.35
2022-10-13T05:39:33.567Z,9.39
2022-10-13T05:40:33.580Z,9.40
2022-10-13T05:41:33.548Z,9.40
2022-10-13T05:42:33.538Z,9.43
2022-10-13T05:43:33.651Z,9.43
2022-10-13T05:44:33.508Z,9.45
2022-10-13T05:45:33.519Z,9.48
2022-10-13T05:46:33.501Z,9.49
2022-10-13T05:47:33.469Z,9.49
2022-10-13T05:48:33.459Z,9.52
2022-10-13T05:49:33.563Z,9.57
2022-10-13T05:50:33.443Z,9.61
2022-10-13T05:51:33.420Z,9.64
2022-10-13T05:52:33.422Z,9.67
2022-10-13T05:53:33.382Z,9.71
2022-10-13T05:54:33.381Z,9.73
2022-10-13T05:55:33.484Z,9.75
2022-10-13T05:56:33.356Z,9.75
2022-10-13T05:57:33.345Z,9.78
2022-10-13T05:58:33.345Z,9.81
2022-10-13T05:59:33.304Z,9.82
2022-10-13T06:00:33.316Z,9.86
2022-10-13T06:01:33.416Z,9.85
2022-10-13T06:02:33.273Z,9.86
2022-10-13T06:03:33.267Z,9.88
2022-10-13T06:04:33.259Z,9.89
2022-10-13T06:05:33.226Z,9.91
2022-10-13T06:06:33.226Z,9.94
2022-10-13T06:07:33.247Z,9.96
2022-10-13T06:08:33.196Z,9.97
2022-10-13T06:09:33.191Z,10.00
2022-10-13T06:10:33.180Z,10.03
2022-10-13T06:11:33.145Z,10.06
2022-10-13T06:12:33.150Z,10.09
2022-10-13T06:13:33.237Z,10.12
2022-10-13T06:14:33.116Z,10.14
2022-10-13T06:15:33.109Z,10.14
2022-10-13T06:16:33.087Z,10.14
2022-10-13T06:17:33.081Z,10.14
2022-10-13T06:18:33.100Z,10.17
2022-10-13T06:19:33.178Z,10.17
2022-10-13T06:20:33.037Z,10.15
2022-10-13T06:21:33.031Z,10.15
2022-10-13T06:22:33.022Z,10.15
2022-10-13T06:23:32.988Z,10.17
2022-10-13T06:24:33.000Z,10.18
2022-10-13T06:25:32.989Z,10.15
2022-10-13T06:26:32.960Z,10.17
2022-10-13T06:27:32.953Z,10.18
2022-10-13T06:28:32.980Z,10.18
2022-10-13T06:29:32.924Z,10.22
2022-10-13T06:30:32.915Z,10.24
2022-10-13T06:31:32.920Z,10.26
2022-10-13T06:32:32.898Z,10.28
2022-10-13T06:33:32.862Z,10.32
2022-10-13T06:34:32.851Z,10.32
2022-10-13T06:35:32.845Z,10.34
2022-10-13T06:36:32.822Z,10.36
2022-10-13T06:37:32.974Z,10.37
2022-10-13T06:38:32.817Z,10.40
2022-10-13T06:39:32.782Z,10.43
2022-10-13T06:40:32.787Z,10.44
2022-10-13T06:41:32.753Z,10.47
2022-10-13T06:42:32.744Z,10.47
2022-10-13T06:43:39.713Z,10.52
2022-10-13T06:44:33.722Z,10.53
2022-10-13T06:45:32.720Z,10.55
2022-10-13T06:46:32.710Z,10.56
2022-10-13T06:47:32.676Z,10.58
2022-10-13T06:48:32.688Z,10.56
2022-10-13T06:49:32.786Z,10.56
2022-10-13T06:50:32.643Z,10.58
2022-10-13T06:51:32.648Z,10.58
2022-10-13T06:52:32.630Z,10.59
2022-10-13T06:53:32.598Z,10.60
2022-10-13T06:54:32.587Z,10.62
2022-10-13T06:55:32.691Z,10.63
2022-10-13T06:56:32.566Z,10.65
2022-10-13T06:57:32.561Z,10.66
2022-10-13T06:58:32.561Z,10.70
2022-10-13T06:59:32.521Z,10.71
2022-10-13T07:00:32.586Z,10.73
2022-10-13T07:01:32.609Z,10.74
2022-10-13T07:02:32.479Z,10.77
2022-10-13T07:03:32.483Z,10.77
2022-10-13T07:04:32.461Z,10.80
2022-10-13T07:05:32.454Z,10.83
2022-10-13T07:06:32.445Z,10.83
2022-10-13T07:07:32.445Z,10.86
2022-10-13T07:08:32.413Z,10.89
2022-10-13T07:09:32.406Z,10.91
2022-10-13T07:10:32.396Z,10.92
2022-10-13T07:11:32.363Z,10.94
2022-10-13T07:12:32.366Z,10.96
2022-10-13T07:13:36.324Z,10.98
2022-10-13T07:14:32.323Z,11.01
2022-10-13T07:15:32.319Z,11.01
2022-10-13T07:16:32.314Z,11.02
2022-10-13T07:17:32.297Z,11.07
2022-10-13T07:18:32.289Z,11.07
2022-10-13T07:19:32.374Z,11.09
2022-10-13T07:20:32.259Z,11.10
2022-10-13T07:21:32.235Z,11.11
2022-10-13T07:22:32.225Z,11.14
2022-10-13T07:23:32.220Z,11.17
2022-10-13T07:24:32.221Z,11.20
2022-10-13T07:25:32.286Z,11.24
2022-10-13T07:26:32.166Z,11.27
2022-10-13T07:27:32.162Z,11.28
2022-10-13T07:28:32.194Z,11.29
2022-10-13T07:29:32.141Z,11.32
2022-10-13T07:30:32.132Z,11.35
2022-10-13T07:31:32.134Z,11.41
2022-10-13T07:32:32.113Z,11.43
2022-10-13T07:33:32.068Z,11.44
2022-10-13T07:34:32.072Z,11.49
2022-10-13T07:35:32.063Z,11.49
2022-10-13T07:36:32.040Z,11.54
2022-10-13T07:37:32.142Z,11.59
2022-10-13T07:38:32.023Z,11.64
2022-10-13T07:39:31.990Z,11.70
2022-10-13T07:40:31.996Z,11.77
2022-10-13T07:41:31.961Z,11.82
2022-10-13T07:42:31.952Z,11.85
2022-10-13T07:43:32.055Z,11.89
2022-10-13T07:44:31.931Z,11.93
2022-10-13T07:45:31.924Z,11.97
2022-10-13T07:46:31.916Z,11.99
2022-10-13T07:47:31.882Z,12.04
2022-10-13T07:48:31.895Z,12.06
2022-10-13T07:49:31.962Z,12.09
2022-10-13T07:50:31.843Z,12.11
2022-10-13T07:51:31.840Z,12.12
2022-10-13T07:52:31.814Z,12.11
2022-10-13T07:53:31.808Z,12.11
2022-10-13T07:54:31.807Z,12.12
2022-10-13T07:55:31.935Z,12.19
2022-10-13T07:56:31.765Z,12.20
2022-10-13T07:57:31.761Z,12.21
2022-10-13T07:58:31.751Z,12.27
2022-10-13T07:59:31.716Z,12.31
2022-10-13T08:00:31.720Z,12.39
2022-10-13T08:01:31.795Z,12.49
2022-10-13T08:02:31.677Z,12.60
2022-10-13T08:03:31.718Z,12.71
2022-10-13T08:04:31.659Z,12.82
2022-10-13T08:05:31.650Z,12.89
2022-10-13T08:06:31.695Z,12.97
2022-10-13T08:07:31.729Z,12.93
2022-10-13T08:08:31.615Z,12.92
2022-10-13T08:09:31.587Z,12.85
2022-10-13T08:10:31.579Z,12.85
2022-10-13T08:11:31.572Z,12.85
2022-10-13T08:12:31.564Z,12.85
2022-10-13T08:13:31.588Z,12.82
2022-10-13T08:14:31.620Z,12.77
2022-10-13T08:15:31.514Z,12.77
2022-10-13T08:16:31.499Z,12.77
2022-10-13T08:17:31.493Z,12.77
2022-10-13T08:18:31.483Z,12.78
2022-10-13T08:19:31.482Z,12.82
2022-10-13T08:20:41.034Z,12.87
2022-10-13T08:21:57.069Z,12.89
2022-10-13T08:22:32.413Z,12.89
2022-10-13T08:23:31.408Z,12.92
2022-10-13T08:24:31.385Z,12.95
2022-10-13T08:25:31.417Z,12.99
2022-10-13T08:26:31.376Z,13.02
2022-10-13T08:27:49.561Z,13.03
2022-10-13T08:28:32.372Z,13.07
2022-10-13T08:29:31.379Z,13.09
2022-10-13T08:30:31.448Z,13.12
2022-10-13T08:31:31.640Z,13.18
2022-10-13T08:32:31.304Z,13.18
2022-10-13T08:33:31.265Z,13.21
2022-10-13T08:34:31.272Z,13.22
2022-10-13T08:35:34.890Z,13.29
2022-10-13T08:36:31.247Z,13.37
2022-10-13T08:37:31.251Z,13.46
2022-10-13T08:38:31.221Z,13.52
2022-10-13T08:39:31.178Z,13.58
2022-10-13T08:40:31.192Z,13.62
2022-10-13T08:41:31.159Z,13.71
2022-10-13T08:42:31.150Z,13.87
2022-10-13T08:43:31.173Z,14.04
2022-10-13T08:45:10.486Z,14.61
2022-10-13T08:45:47.431Z,15.03
2022-10-13T08:46:32.091Z,15.27
2022-10-13T08:47:31.094Z,15.78
2022-10-13T08:48:31.061Z,16.06
2022-10-13T08:49:31.184Z,16.27
2022-10-13T08:50:31.045Z,16.20
2022-10-13T08:51:31.051Z,16.12
2022-10-13T08:52:31.026Z,15.94
2022-10-13T08:53:31.008Z,15.70
2022-10-13T08:54:30.983Z,15.52
2022-10-13T08:55:31.097Z,15.36
2022-10-13T08:56:30.955Z,15.15
2022-10-13T08:57:30.968Z,14.98
2022-10-13T08:58:30.948Z,14.80
2022-10-13T08:59:30.923Z,14.69
2022-10-13T09:00:30.908Z,14.61
2022-10-13T09:01:30.965Z,14.54
2022-10-13T09:02:30.891Z,14.49
2022-10-13T09:03:30.869Z,14.49
2022-10-13T09:04:30.859Z,14.50
2022-10-13T09:05:30.845Z,14.47
2022-10-13T09:06:30.827Z,14.46
2022-10-13T09:07:30.941Z,14.44
2022-10-13T09:08:30.797Z,14.44
2022-10-13T09:09:30.803Z,14.47
2022-10-13T09:10:30.782Z,14.54
2022-10-13T09:11:30.768Z,14.61
2022-10-13T09:12:30.761Z,14.69
2022-10-13T09:13:30.759Z,14.75
2022-10-13T09:14:30.719Z,15.21
2022-10-13T09:15:30.722Z,15.52
2022-10-13T09:16:30.703Z,15.99
2022-10-13T09:17:30.681Z,16.67
2022-10-13T09:18:30.666Z,17.38
2022-10-13T09:19:30.785Z,17.97
2022-10-13T09:20:30.633Z,18.43
2022-10-13T09:21:30.644Z,18.74
2022-10-13T09:22:30.625Z,19.20
2022-10-13T09:23:30.602Z,19.48
2022-10-13T09:24:30.601Z,19.88
2022-10-13T09:25:30.600Z,20.06
2022-10-13T09:26:30.564Z,20.03
2022-10-13T09:27:30.567Z,20.09
2022-10-13T09:28:30.573Z,20.16
2022-10-13T09:29:30.537Z,20.43
2022-10-13T09:30:30.519Z,20.68
2022-10-13T09:31:30.525Z,20.69
2022-10-13T09:32:30.490Z,20.38
2022-10-13T09:33:30.480Z,19.50
2022-10-13T09:34:30.460Z,18.80
2022-10-13T09:35:30.436Z,18.34
2022-10-13T09:36:30.431Z,18.06
2022-10-13T09:37:30.525Z,17.63
2022-10-13T09:38:30.422Z,17.33
2022-10-13T09:39:30.409Z,17.00
2022-10-13T09:40:30.390Z,16.73
2022-10-13T09:41:30.372Z,16.41
2022-10-13T09:42:30.353Z,16.20
2022-10-13T09:43:30.439Z,16.11
2022-10-13T09:44:30.323Z,16.03
2022-10-13T09:45:30.318Z,16.01
2022-10-13T09:46:30.290Z,16.07
2022-10-13T09:47:30.296Z,16.15
2022-10-13T09:48:30.262Z,16.31
2022-10-13T09:49:30.383Z,16.50
2022-10-13T09:50:30.245Z,16.75
2022-10-13T09:51:30.224Z,17.32
2022-10-13T09:52:30.218Z,17.53
2022-10-13T09:53:30.201Z,17.94
2022-10-13T09:54:30.182Z,18.39
2022-10-13T09:55:32.656Z,18.79
2022-10-13T09:56:30.155Z,19.02
2022-10-13T09:57:30.158Z,19.23
2022-10-13T09:58:30.139Z,19.25
2022-10-13T09:59:30.118Z,19.25
2022-10-13T10:00:30.123Z,19.36
2022-10-13T10:01:30.116Z,19.75
2022-10-13T10:02:30.337Z,20.24
2022-10-13T10:03:30.081Z,20.68
2022-10-13T10:04:30.115Z,21.24
2022-10-13T10:05:30.038Z,21.69
2022-10-13T10:06:30.020Z,21.50
2022-10-13T10:07:30.139Z,21.42
2022-10-13T10:08:33.752Z,21.51
2022-10-13T10:09:30.993Z,21.23
2022-10-13T10:10:29.973Z,20.95
2022-10-13T10:11:29.957Z,20.71
2022-10-13T10:12:29.951Z,20.34
2022-10-13T10:13:29.961Z,20.62
2022-10-13T10:14:29.913Z,20.54
2022-10-13T10:15:29.917Z,20.05
2022-10-13T10:16:29.882Z,19.55
2022-10-13T10:17:29.893Z,18.98
2022-10-13T10:18:29.877Z,18.62
2022-10-13T10:19:29.954Z,18.65
2022-10-13T10:20:29.845Z,18.46
2022-10-13T10:21:29.837Z,18.31
2022-10-13T10:22:29.820Z,18.15
2022-10-13T10:23:29.805Z,17.99
2022-10-13T10:24:29.789Z,17.87
2022-10-13T10:25:29.932Z,17.85
2022-10-13T10:26:32.745Z,17.84
2022-10-13T10:27:29.759Z,17.70
2022-10-13T10:28:29.755Z,17.64
2022-10-13T10:29:29.730Z,17.54
2022-10-13T10:30:29.710Z,17.47
2022-10-13T10:31:29.797Z,17.47
2022-10-13T10:32:29.688Z,17.47
2022-10-13T10:33:29.666Z,17.50
2022-10-13T10:34:29.648Z,17.54
2022-10-13T10:35:29.652Z,17.57
2022-10-13T10:36:29.638Z,17.53
2022-10-13T10:37:29.648Z,17.36
2022-10-13T10:38:29.590Z,17.36
2022-10-13T10:39:29.600Z,17.53
2022-10-13T10:40:29.562Z,18.03
2022-10-13T10:41:29.585Z,18.27
2022-10-13T10:42:29.552Z,18.80
2022-10-13T10:43:29.559Z,18.99
2022-10-13T10:44:29.525Z,19.63
2022-10-13T10:45:29.502Z,20.02
2022-10-13T10:46:29.487Z,19.87
2022-10-13T10:47:30.106Z,19.60
2022-10-13T10:48:29.453Z,19.35
2022-10-13T10:49:29.578Z,19.13
2022-10-13T10:50:29.447Z,18.99
2022-10-13T10:51:29.425Z,18.82
2022-10-13T10:52:29.418Z,18.74
2022-10-13T10:53:29.396Z,19.25
2022-10-13T10:54:29.376Z,19.42
2022-10-13T10:55:29.499Z,19.48
2022-10-13T10:56:29.355Z,19.57
2022-10-13T10:57:29.453Z,19.40
2022-10-13T10:58:29.341Z,19.21
2022-10-13T10:59:29.328Z,19.06
2022-10-13T11:00:29.316Z,18.92
2022-10-13T11:01:29.480Z,18.73
2022-10-13T11:02:29.290Z,18.42
2022-10-13T11:03:29.291Z,18.21
2022-10-13T11:04:29.250Z,18.02
2022-10-13T11:05:29.295Z,17.81
2022-10-13T11:06:29.234Z,17.63
2022-10-13T11:07:29.321Z,17.40
2022-10-13T11:08:29.191Z,17.29
2022-10-13T11:09:29.202Z,17.14
2022-10-13T11:10:29.184Z,17.04
2022-10-13T11:11:33.443Z,16.96
2022-10-13T11:12:30.177Z,16.92
2022-10-13T11:13:29.132Z,16.88
2022-10-13T11:14:29.121Z,16.81
2022-10-13T11:15:29.117Z,16.78
2022-10-13T11:16:29.103Z,16.78
2022-10-13T11:17:29.095Z,16.74
2022-10-13T11:18:29.186Z,16.71
2022-10-13T11:19:29.057Z,16.68
2022-10-13T11:20:29.049Z,16.67
2022-10-13T11:21:29.026Z,16.65
2022-10-13T11:22:29.005Z,16.58
2022-10-13T11:23:29.010Z,16.41
2022-10-13T11:24:29.017Z,16.15
2022-10-13T11:25:28.974Z,15.97
2022-10-13T11:26:28.959Z,15.84
2022-10-13T11:27:28.962Z,15.78
2022-10-13T11:28:28.973Z,15.74
2022-10-13T11:29:28.932Z,15.70
2022-10-13T11:31:33.479Z,15.63
2022-10-13T11:32:29.885Z,15.64
2022-10-13T11:33:28.868Z,15.60
2022-10-13T11:34:28.843Z,15.52
2022-10-13T11:35:28.851Z,15.48
2022-10-13T11:36:28.935Z,15.46
2022-10-13T11:37:28.825Z,15.45
2022-10-13T11:38:28.807Z,15.42
2022-10-13T11:39:28.868Z,15.39
2022-10-13T11:40:28.809Z,15.42
2022-10-13T11:41:28.767Z,15.43
2022-10-13T11:42:28.777Z,15.45
2022-10-13T11:43:28.732Z,15.46
2022-10-13T11:45:28.708Z,15.57
2022-10-13T11:46:28.691Z,15.64
2022-10-13T11:47:28.695Z,15.76
2022-10-13T11:48:28.722Z,15.86
2022-10-13T11:49:28.684Z,15.99
2022-10-13T11:50:28.663Z,16.12
2022-10-13T11:51:28.618Z,16.09
2022-10-13T11:52:28.620Z,16.09
2022-10-13T11:53:28.597Z,16.16
2022-10-13T11:54:28.695Z,16.33
2022-10-13T11:55:28.582Z,16.48
2022-10-13T11:56:28.548Z,16.65
2022-10-13T11:57:28.572Z,16.80
2022-10-13T11:58:28.534Z,16.93
2022-10-13T11:59:28.514Z,17.04
2022-10-13T12:00:28.524Z,17.15
2022-10-13T12:01:28.484Z,17.22
2022-10-13T12:02:28.501Z,17.22
2022-10-13T12:03:28.474Z,17.25
2022-10-13T12:04:28.469Z,17.26
2022-10-13T12:05:28.449Z,17.28
2022-10-13T12:06:28.468Z,17.29
2022-10-13T12:07:28.403Z,17.28
2022-10-13T12:08:28.397Z,17.23
2022-10-13T12:09:28.374Z,17.08
2022-10-13T12:10:28.355Z,16.98
2022-10-13T12:11:28.368Z,16.93
2022-10-13T12:12:28.459Z,16.86
2022-10-13T12:13:28.330Z,16.83
2022-10-13T12:14:28.366Z,16.74
2022-10-13T12:15:28.309Z,16.67
2022-10-13T12:16:28.275Z,16.60
2022-10-13T12:17:28.565Z,16.53
2022-10-13T12:18:28.380Z,16.45
2022-10-13T12:19:28.237Z,16.41
2022-10-13T12:20:28.238Z,16.38
2022-10-13T12:21:28.218Z,16.33
2022-10-13T12:22:28.197Z,16.27
2022-10-13T12:23:28.202Z,16.25
2022-10-13T12:24:28.279Z,16.18
2022-10-13T12:25:28.173Z,16.16
2022-10-13T12:26:28.154Z,16.15
2022-10-13T12:27:28.130Z,16.15
2022-10-13T12:28:28.135Z,16.14
2022-10-13T12:29:28.887Z,16.15
2022-10-13T12:30:28.211Z,16.14
2022-10-13T12:31:28.081Z,16.18
2022-10-13T12:32:28.085Z,16.23
2022-10-13T12:33:28.053Z,16.27
2022-10-13T12:34:28.052Z,16.33
2022-10-13T12:35:28.053Z,16.40
2022-10-13T12:36:30.133Z,16.48
2022-10-13T12:37:28.007Z,16.52
2022-10-13T12:38:27.988Z,16.55
2022-10-13T12:39:27.984Z,16.60
2022-10-13T12:40:27.961Z,16.65
2022-10-13T12:41:27.947Z,16.73
2022-10-13T12:42:28.035Z,16.75
2022-10-13T12:43:27.949Z,16.78
2022-10-13T12:44:27.910Z,16.83
2022-10-13T12:45:27.886Z,16.88
2022-10-13T12:46:27.866Z,16.92
2022-10-13T12:47:27.870Z,16.96
2022-10-13T12:48:27.956Z,16.99
2022-10-13T12:49:27.859Z,16.90
2022-10-13T12:50:27.837Z,16.88
2022-10-13T12:51:27.840Z,16.92
2022-10-13T12:52:27.801Z,17.04
2022-10-13T12:53:27.779Z,17.15
2022-10-13T12:54:27.790Z,17.29
2022-10-13T12:55:27.765Z,17.40
2022-10-13T12:56:27.730Z,17.48
2022-10-13T12:57:27.735Z,17.54
2022-10-13T12:58:27.715Z,17.63
2022-10-13T12:59:27.711Z,17.66
2022-10-13T13:00:27.915Z,17.67
2022-10-13T13:01:27.662Z,17.70
2022-10-13T13:02:27.653Z,17.73
2022-10-13T13:03:27.655Z,17.73
2022-10-13T13:04:27.633Z,17.74
2022-10-13T13:05:27.628Z,17.79
2022-10-13T13:06:27.727Z,17.82
2022-10-13T13:07:27.584Z,17.84